Time;durP1;ratioP1;P1;durP2;ratioP2;P2;SDS_P1;SDS_P2;PMS_P1;PMS_P2;Temp;Humidity;BMP_temperature;BMP_pressure;BME280_temperature;BME280_humidity;BME280_pressure;Samples;Min_cycle;Max_cycle;Signal;HPM_P1;HPM_P2
2024/01/05 00:01:27;;;;;;;7.37;3.83;;;2.60;99.90;;;;;;4160395;28;20814;-79
2024/01/05 00:03:29;;;;;;;5.30;3.47;;;2.60;99.90;;;;;;4190041;28;20452;-79
2024/01/05 00:05:31;;;;;;;7.50;4.07;;;2.60;99.90;;;;;;4158756;28;20434;-79
2024/01/05 00:07:33;;;;;;;7.43;4.03;;;2.60;99.90;;;;;;4162591;28;21027;-78
2024/01/05 00:09:35;;;;;;;7.03;3.87;;;2.60;99.90;;;;;;4156049;28;20483;-79
2024/01/05 00:11:37;;;;;;;6.83;3.97;;;2.60;99.90;;;;;;4162269;28;20511;-78
2024/01/05 00:13:39;;;;;;;6.77;4.10;;;2.60;99.90;;;;;;4162212;28;20449;-80
2024/01/05 00:15:42;;;;;;;6.53;3.77;;;2.70;99.90;;;;;;4159609;28;20442;-79
2024/01/05 00:17:44;;;;;;;6.17;3.30;;;3.00;99.90;;;;;;4156035;28;20438;-78
2024/01/05 00:19:46;;;;;;;7.00;3.90;;;2.60;99.90;;;;;;4161645;28;20516;-79
2024/01/05 00:21:48;;;;;;;6.97;3.57;;;2.60;99.90;;;;;;4162216;28;20438;-78
2024/01/05 00:23:52;;;;;;;7.90;4.23;;;2.60;99.90;;;;;;4161591;28;20470;-79
2024/01/05 00:25:54;;;;;;;7.53;3.93;;;2.60;99.90;;;;;;4155074;28;20458;-79
2024/01/05 00:27:55;;;;;;;7.37;3.70;;;2.50;99.90;;;;;;4162393;28;20478;-79
2024/01/05 00:29:57;;;;;;;7.17;3.93;;;2.60;99.90;;;;;;4155603;28;20493;-79
2024/01/05 00:32:01;;;;;;;7.40;4.00;;;2.60;99.90;;;;;;4155710;28;20257;-79
2024/01/05 00:34:02;;;;;;;8.27;3.77;;;2.60;99.90;;;;;;4155869;28;20462;-79
2024/01/05 00:36:05;;;;;;;8.03;3.97;;;2.60;99.90;;;;;;4158734;28;20451;-78
2024/01/05 00:38:10;;;;;;;7.10;3.83;;;2.60;99.90;;;;;;4161200;28;20434;-80
2024/01/05 00:40:11;;;;;;;6.77;3.73;;;2.60;99.90;;;;;;4163018;28;20446;-79
2024/01/05 00:42:13;;;;;;;6.27;3.50;;;2.60;99.90;;;;;;4161749;28;20452;-80
2024/01/05 00:44:15;;;;;;;6.50;3.37;;;2.60;99.90;;;;;;4162084;28;20527;-78
2024/01/05 00:46:16;;;;;;;5.77;3.40;;;2.60;99.90;;;;;;4158072;28;21459;-78
2024/01/05 00:48:19;;;;;;;8.13;4.00;;;2.60;99.90;;;;;;4160141;28;20484;-79
2024/01/05 00:50:21;;;;;;;7.43;3.90;;;2.60;99.90;;;;;;4164891;28;20254;-79
2024/01/05 00:52:23;;;;;;;9.27;4.30;;;2.60;99.90;;;;;;4160422;28;20458;-79
2024/01/05 00:54:25;;;;;;;9.70;4.20;;;2.60;99.90;;;;;;4164556;28;20470;-79
2024/01/05 00:56:27;;;;;;;8.37;4.10;;;2.60;99.90;;;;;;4158999;28;20449;-80
2024/01/05 00:58:29;;;;;;;7.30;4.00;;;2.60;99.90;;;;;;4162722;28;20437;-78
2024/01/05 01:00:30;;;;;;;7.23;3.80;;;2.60;99.90;;;;;;4158001;28;20477;-79
2024/01/05 01:02:32;;;;;;;7.00;4.07;;;2.60;99.90;;;;;;4163461;28;20481;-79
2024/01/05 01:04:35;;;;;;;8.17;4.20;;;2.60;99.90;;;;;;4164366;28;20266;-79
2024/01/05 01:06:37;;;;;;;9.73;4.20;;;2.60;99.90;;;;;;4154830;28;20432;-79
2024/01/05 01:08:39;;;;;;;8.13;3.90;;;2.70;99.90;;;;;;4158643;28;21006;-79
2024/01/05 01:10:41;;;;;;;8.33;4.03;;;2.60;99.90;;;;;;4162518;28;20499;-79
2024/01/05 01:12:43;;;;;;;8.57;4.17;;;2.70;99.90;;;;;;4163829;28;20461;-79
2024/01/05 01:14:45;;;;;;;9.13;4.53;;;2.70;99.90;;;;;;4163001;28;21037;-78
2024/01/05 01:16:47;;;;;;;8.20;4.30;;;2.70;99.90;;;;;;4160510;28;20439;-79
2024/01/05 01:18:49;;;;;;;7.43;4.30;;;2.70;99.90;;;;;;4164576;28;20454;-79
2024/01/05 01:20:52;;;;;;;10.30;4.40;;;2.70;99.90;;;;;;4163237;28;20456;-78
2024/01/05 01:22:53;;;;;;;8.80;4.90;;;2.60;99.90;;;;;;4158111;28;20442;-79
2024/01/05 01:24:55;;;;;;;9.50;4.40;;;2.60;99.90;;;;;;4159135;28;20539;-79
2024/01/05 01:26:56;;;;;;;10.63;5.13;;;2.60;99.90;;;;;;4164867;28;20265;-79
2024/01/05 01:28:58;;;;;;;9.17;4.67;;;2.60;99.90;;;;;;4159017;28;20453;-79
2024/01/05 01:31:00;;;;;;;8.57;4.47;;;2.60;99.90;;;;;;4162531;28;20215;-78
2024/01/05 01:33:02;;;;;;;10.27;4.80;;;2.50;99.90;;;;;;4162808;28;20504;-78
2024/01/05 01:35:04;;;;;;;10.53;4.80;;;2.50;99.90;;;;;;4163482;28;20524;-79
2024/01/05 01:37:08;;;;;;;7.27;4.03;;;2.50;99.90;;;;;;4158047;28;20441;-79
2024/01/05 01:39:11;;;;;;;11.03;5.17;;;2.50;99.90;;;;;;4159821;28;20874;-78
2024/01/05 01:41:13;;;;;;;8.03;4.60;;;2.50;99.90;;;;;;4157478;28;20533;-80
2024/01/05 01:43:19;;;;;;;11.23;4.73;;;2.50;99.90;;;;;;4192330;28;20980;-79
2024/01/05 01:45:22;;;;;;;10.30;5.17;;;2.50;99.90;;;;;;4154431;28;20463;-78
2024/01/05 01:47:24;;;;;;;8.50;4.30;;;2.50;99.90;;;;;;4155385;28;20489;-78
2024/01/05 01:49:28;;;;;;;10.77;4.70;;;2.50;99.90;;;;;;4158450;28;20437;-79
2024/01/05 01:51:31;;;;;;;9.33;5.00;;;2.40;99.90;;;;;;4156316;28;20466;-80
2024/01/05 01:53:35;;;;;;;13.23;5.20;;;2.50;99.90;;;;;;4158530;28;21443;-79
2024/01/05 01:55:37;;;;;;;10.53;5.23;;;2.50;99.90;;;;;;4156266;28;20481;-79
2024/01/05 01:57:40;;;;;;;9.73;5.40;;;2.50;99.90;;;;;;4153948;28;20454;-80
2024/01/05 01:59:42;;;;;;;8.70;4.50;;;2.40;99.90;;;;;;4158413;28;20441;-79
2024/01/05 02:01:44;;;;;;;8.77;4.53;;;2.40;99.90;;;;;;4156771;28;20447;-78
2024/01/05 02:03:46;;;;;;;10.23;5.00;;;2.40;99.90;;;;;;4159383;28;20558;-79
2024/01/05 02:05:49;;;;;;;9.20;4.87;;;2.50;99.90;;;;;;4161552;28;20462;-79
2024/01/05 02:07:51;;;;;;;9.67;4.80;;;2.40;99.90;;;;;;4155536;28;20481;-79
2024/01/05 02:09:53;;;;;;;9.20;4.97;;;2.40;99.90;;;;;;4160974;28;20443;-79
2024/01/05 02:11:55;;;;;;;8.43;4.43;;;2.40;99.90;;;;;;4161217;28;20447;-79
2024/01/05 02:13:57;;;;;;;10.20;5.10;;;2.40;99.90;;;;;;4159564;28;20508;-79
2024/01/05 02:15:59;;;;;;;9.90;4.87;;;2.40;99.90;;;;;;4160680;28;20450;-79
2024/01/05 02:18:08;;;;;;;12.33;5.20;;;2.40;99.90;;;;;;4160970;28;20511;-78
2024/01/05 02:20:10;;;;;;;10.40;4.80;;;2.40;99.90;;;;;;4156680;28;20972;-79
2024/01/05 02:22:12;;;;;;;12.07;5.37;;;2.40;99.90;;;;;;4162213;28;20470;-80
2024/01/05 02:24:15;;;;;;;9.60;4.53;;;2.30;99.90;;;;;;4158464;28;20466;-79
2024/01/05 02:26:17;;;;;;;11.20;5.20;;;2.30;99.90;;;;;;4157409;28;20953;-78
2024/01/05 02:28:20;;;;;;;10.43;5.10;;;2.30;99.90;;;;;;4158183;28;20481;-79
2024/01/05 02:30:22;;;;;;;11.53;5.13;;;2.30;99.90;;;;;;4158061;28;20442;-79
2024/01/05 02:32:24;;;;;;;11.70;4.90;;;2.30;99.90;;;;;;4156772;28;20492;-79
2024/01/05 02:34:25;;;;;;;11.17;5.40;;;2.30;99.90;;;;;;4157633;28;20471;-79
2024/01/05 02:36:28;;;;;;;10.70;4.93;;;2.30;99.90;;;;;;4156325;28;20442;-79
2024/01/05 02:38:30;;;;;;;9.73;4.80;;;2.20;99.90;;;;;;4158902;28;20508;-79
2024/01/05 02:40:32;;;;;;;9.87;4.77;;;2.20;99.90;;;;;;4160576;28;20813;-79
2024/01/05 02:42:34;;;;;;;11.23;5.20;;;2.20;99.90;;;;;;4158560;28;20461;-78
2024/01/05 02:44:35;;;;;;;10.10;4.97;;;2.20;99.90;;;;;;4162692;28;20530;-78
2024/01/05 02:46:37;;;;;;;9.30;4.93;;;2.30;99.90;;;;;;4162802;28;21225;-79
2024/01/05 02:48:38;;;;;;;8.63;4.73;;;2.20;99.90;;;;;;4160521;28;20223;-78
2024/01/05 02:50:40;;;;;;;12.57;4.53;;;2.20;99.90;;;;;;4160054;28;20458;-79
2024/01/05 02:52:42;;;;;;;10.27;4.70;;;2.20;99.90;;;;;;4157781;28;20257;-79
2024/01/05 02:54:45;;;;;;;10.30;5.10;;;2.30;99.90;;;;;;4160698;28;20470;-79
2024/01/05 02:56:48;;;;;;;13.47;5.63;;;2.20;99.90;;;;;;4158596;28;20489;-79
2024/01/05 02:58:50;;;;;;;10.03;4.67;;;2.20;99.90;;;;;;4162289;28;20458;-79
2024/01/05 03:00:52;;;;;;;9.40;4.70;;;2.20;99.90;;;;;;4160016;28;20458;-78
2024/01/05 03:02:54;;;;;;;9.67;5.03;;;2.20;99.90;;;;;;4161378;28;20462;-78
2024/01/05 03:04:55;;;;;;;10.57;5.17;;;2.20;99.90;;;;;;4190378;28;20466;-79
2024/01/05 03:06:57;;;;;;;9.50;5.07;;;2.20;99.90;;;;;;4154345;28;20938;-79
2024/01/05 03:08:59;;;;;;;12.23;5.40;;;2.20;99.90;;;;;;4159683;28;20540;-79
2024/01/05 03:11:01;;;;;;;11.80;5.23;;;2.20;99.90;;;;;;4156576;28;20519;-79
2024/01/05 03:13:05;;;;;;;10.33;5.03;;;2.20;99.90;;;;;;4156687;28;20455;-80
2024/01/05 03:15:08;;;;;;;11.50;5.03;;;2.20;99.90;;;;;;4154806;28;20997;-78
2024/01/05 03:17:10;;;;;;;10.20;5.33;;;2.20;99.90;;;;;;4153319;28;20493;-79
2024/01/05 03:19:11;;;;;;;10.03;4.97;;;2.30;99.90;;;;;;4157514;28;20434;-79
2024/01/05 03:21:12;;;;;;;10.20;4.97;;;2.30;99.90;;;;;;4161353;28;21261;-79
2024/01/05 03:23:15;;;;;;;12.00;4.87;;;2.30;99.90;;;;;;4151071;28;20344;-78
2024/01/05 03:25:17;;;;;;;11.23;5.40;;;2.30;99.90;;;;;;4156405;28;21173;-80
2024/01/05 03:27:19;;;;;;;12.57;6.10;;;2.30;99.90;;;;;;4159532;28;20500;-79
2024/01/05 03:29:22;;;;;;;11.63;5.43;;;2.40;99.90;;;;;;4157457;28;20439;-79
2024/01/05 03:31:25;;;;;;;13.13;5.80;;;2.40;99.90;;;;;;4157115;28;20446;-79
2024/01/05 03:33:27;;;;;;;12.70;5.50;;;2.40;99.90;;;;;;4159879;28;20442;-79
2024/01/05 03:35:29;;;;;;;11.10;5.63;;;2.40;99.90;;;;;;4164960;28;20980;-79
2024/01/05 03:37:31;;;;;;;10.17;5.37;;;2.40;99.90;;;;;;4163292;28;20926;-79
2024/01/05 03:39:32;;;;;;;11.37;5.90;;;2.40;99.90;;;;;;4159022;28;20508;-79
2024/01/05 03:41:37;;;;;;;10.30;5.27;;;2.40;99.90;;;;;;4192969;28;20861;-79
2024/01/05 03:43:38;;;;;;;14.03;6.17;;;2.40;99.90;;;;;;4161011;28;20199;-79
2024/01/05 03:45:41;;;;;;;12.23;5.50;;;2.40;99.90;;;;;;4162047;28;20442;-79
2024/01/05 03:47:43;;;;;;;13.80;6.60;;;2.40;99.90;;;;;;4159371;28;20742;-79
2024/01/05 03:49:45;;;;;;;13.00;5.80;;;2.40;99.90;;;;;;4161699;28;20856;-78
2024/01/05 03:51:47;;;;;;;12.50;6.03;;;2.40;99.90;;;;;;4159859;28;20458;-79
2024/01/05 03:53:49;;;;;;;11.97;6.47;;;2.40;99.90;;;;;;4156805;28;20532;-79
2024/01/05 03:55:51;;;;;;;18.73;6.40;;;2.50;99.90;;;;;;4158975;28;20504;-79
2024/01/05 03:57:53;;;;;;;14.17;6.93;;;2.40;99.90;;;;;;4162046;28;20446;-80
2024/01/05 03:59:55;;;;;;;10.50;5.53;;;2.50;99.90;;;;;;4151610;28;20485;-79
2024/01/05 04:01:58;;;;;;;13.30;6.30;;;2.50;99.90;;;;;;4160282;28;20501;-79
2024/01/05 04:04:00;;;;;;;12.10;5.97;;;2.50;99.90;;;;;;4162225;28;20548;-80
2024/01/05 04:06:03;;;;;;;14.13;7.00;;;2.50;99.90;;;;;;4159476;28;20457;-79
2024/01/05 04:08:04;;;;;;;15.27;6.77;;;2.50;99.90;;;;;;4155458;28;20496;-79
2024/01/05 04:10:07;;;;;;;12.43;5.70;;;2.50;99.90;;;;;;4151676;28;20465;-79
2024/01/05 04:12:09;;;;;;;12.33;6.17;;;2.50;99.90;;;;;;4155966;28;21112;-79
2024/01/05 04:14:11;;;;;;;14.33;6.00;;;2.50;99.90;;;;;;4158857;28;20548;-79
2024/01/05 04:16:13;;;;;;;11.50;5.83;;;2.50;99.90;;;;;;4157338;28;20465;-79
2024/01/05 04:18:17;;;;;;;13.20;5.77;;;2.50;99.90;;;;;;4154938;28;20457;-78
2024/01/05 04:20:18;;;;;;;13.73;6.10;;;2.50;99.90;;;;;;4150711;28;21411;-79
2024/01/05 04:22:21;;;;;;;13.30;5.57;;;2.60;99.90;;;;;;4162514;28;20584;-80
2024/01/05 04:24:24;;;;;;;14.00;6.67;;;2.60;99.90;;;;;;4156021;28;20463;-79
2024/01/05 04:26:26;;;;;;;11.00;6.03;;;2.60;99.90;;;;;;4160210;28;20504;-79
2024/01/05 04:28:31;;;;;;;13.33;6.70;;;2.60;99.90;;;;;;4153686;28;20980;-79
2024/01/05 04:30:33;;;;;;;14.90;7.07;;;2.60;99.90;;;;;;4157654;28;20501;-79
2024/01/05 04:32:35;;;;;;;16.73;6.37;;;2.60;99.90;;;;;;4155714;28;20470;-80
2024/01/05 04:34:38;;;;;;;11.90;5.93;;;2.60;99.90;;;;;;4159557;28;20466;-79
2024/01/05 04:36:40;;;;;;;13.13;6.57;;;2.60;99.90;;;;;;4155729;28;20456;-79
2024/01/05 04:38:41;;;;;;;13.10;6.30;;;2.60;99.90;;;;;;4160996;28;20443;-79
2024/01/05 04:40:43;;;;;;;13.90;6.57;;;2.70;99.90;;;;;;4160453;28;20451;-79
2024/01/05 04:42:45;;;;;;;14.23;6.37;;;2.70;99.90;;;;;;4158356;28;20453;-79
2024/01/05 04:44:47;;;;;;;13.33;6.27;;;2.70;99.90;;;;;;4160500;28;20555;-79
2024/01/05 04:46:49;;;;;;;12.57;6.40;;;2.70;99.90;;;;;;4158437;28;20457;-80
2024/01/05 04:48:51;;;;;;;12.93;6.87;;;2.70;99.90;;;;;;4154899;28;20507;-78
2024/01/05 04:50:54;;;;;;;12.70;6.20;;;2.70;99.90;;;;;;4159183;28;20450;-78
2024/01/05 04:52:56;;;;;;;12.97;6.40;;;2.80;99.90;;;;;;4156727;28;20450;-80
2024/01/05 04:54:58;;;;;;;14.33;6.67;;;2.80;99.90;;;;;;4158884;28;20528;-80
2024/01/05 04:57:01;;;;;;;13.53;6.00;;;2.80;99.90;;;;;;4157728;28;21021;-80
2024/01/05 04:59:03;;;;;;;15.03;6.57;;;2.80;99.90;;;;;;4156977;28;20824;-80
2024/01/05 05:01:05;;;;;;;11.70;6.03;;;2.80;99.90;;;;;;4161574;28;20503;-81
2024/01/05 05:03:07;;;;;;;13.83;6.30;;;2.80;99.90;;;;;;4160242;28;20500;-82
2024/01/05 05:05:08;;;;;;;11.37;5.23;;;2.90;99.90;;;;;;4152550;28;20490;-85
2024/01/05 05:07:11;;;;;;;11.57;6.03;;;2.90;99.90;;;;;;4156971;28;20438;-82
2024/01/05 05:09:12;;;;;;;10.80;5.77;;;2.90;99.90;;;;;;4153365;28;20475;-81
2024/01/05 05:11:14;;;;;;;13.77;5.93;;;2.90;99.90;;;;;;4157633;28;20449;-82
2024/01/05 05:13:16;;;;;;;11.43;5.73;;;3.00;99.90;;;;;;4154622;28;20216;-82
2024/01/05 05:15:18;;;;;;;12.30;5.97;;;3.20;99.90;;;;;;4156677;28;20482;-83
2024/01/05 05:17:20;;;;;;;13.70;6.97;;;2.90;99.90;;;;;;4158860;28;20447;-82
2024/01/05 05:19:22;;;;;;;13.93;6.30;;;3.00;99.90;;;;;;4162391;28;20509;-82
2024/01/05 05:21:26;;;;;;;15.80;7.07;;;3.00;99.90;;;;;;4159340;28;20463;-81
2024/01/05 05:23:29;;;;;;;13.23;6.27;;;3.00;99.90;;;;;;4158673;28;20513;-81
2024/01/05 05:25:32;;;;;;;11.90;5.87;;;3.00;99.90;;;;;;4161072;28;20828;-81
2024/01/05 05:27:34;;;;;;;13.07;5.87;;;3.00;99.90;;;;;;4157349;28;20998;-81
2024/01/05 05:29:38;;;;;;;12.83;6.07;;;3.10;99.90;;;;;;4163452;28;20524;-81
2024/01/05 05:31:40;;;;;;;16.00;6.30;;;3.10;99.90;;;;;;4158754;28;20453;-80
2024/01/05 05:33:41;;;;;;;11.53;5.43;;;3.10;99.90;;;;;;4160648;28;20470;-81
2024/01/05 05:35:43;;;;;;;11.23;5.67;;;3.10;99.90;;;;;;4159776;28;20496;-82
2024/01/05 05:37:45;;;;;;;13.93;5.80;;;3.10;99.90;;;;;;4166142;28;20679;-83
2024/01/05 05:39:49;;;;;;;13.07;5.47;;;3.10;99.90;;;;;;4159578;28;20452;-81
2024/01/05 05:41:50;;;;;;;12.67;5.47;;;3.20;99.90;;;;;;4157677;28;20478;-80
2024/01/05 05:43:52;;;;;;;12.37;5.77;;;3.20;99.90;;;;;;4164606;28;20470;-81
2024/01/05 05:45:55;;;;;;;11.33;5.33;;;3.20;99.90;;;;;;4161832;28;20461;-79
2024/01/05 05:48:00;;;;;;;13.10;5.67;;;3.20;99.90;;;;;;4161790;28;20444;-79
2024/01/05 05:50:01;;;;;;;12.63;6.20;;;3.20;99.90;;;;;;4163271;28;20535;-80
2024/01/05 05:52:04;;;;;;;14.37;6.37;;;3.20;99.90;;;;;;4161655;28;20486;-81
2024/01/05 05:54:06;;;;;;;14.83;5.83;;;3.30;99.90;;;;;;4157267;28;20471;-80
2024/01/05 05:56:10;;;;;;;10.10;5.30;;;3.30;99.90;;;;;;4158894;28;20470;-79
2024/01/05 05:58:11;;;;;;;11.13;5.03;;;3.30;99.90;;;;;;4157634;28;20446;-81
2024/01/05 06:00:14;;;;;;;14.63;5.53;;;3.30;99.90;;;;;;4159341;28;20460;-81
2024/01/05 06:02:16;;;;;;;15.10;5.07;;;3.30;99.90;;;;;;4160227;28;20446;-80
2024/01/05 06:04:17;;;;;;;9.97;4.67;;;3.30;99.90;;;;;;4160802;28;20482;-80
2024/01/05 06:06:21;;;;;;;13.70;5.33;;;3.30;99.90;;;;;;4160216;28;20961;-80
2024/01/05 06:08:23;;;;;;;12.77;4.80;;;3.40;99.90;;;;;;4160027;28;20275;-80
2024/01/05 06:10:24;;;;;;;12.00;5.40;;;3.40;99.90;;;;;;4160191;28;20513;-80
2024/01/05 06:12:27;;;;;;;10.97;4.80;;;3.40;99.90;;;;;;4160300;28;20444;-81
2024/01/05 06:14:28;;;;;;;11.83;5.03;;;3.50;99.90;;;;;;4160893;28;20227;-81
2024/01/05 06:16:30;;;;;;;12.03;5.33;;;3.50;99.90;;;;;;4161462;28;20492;-81
2024/01/05 06:18:32;;;;;;;10.43;5.20;;;3.50;99.90;;;;;;4156815;28;20456;-82
2024/01/05 06:20:34;;;;;;;9.77;4.40;;;3.50;99.90;;;;;;4158550;28;20458;-81
2024/01/05 06:22:36;;;;;;;14.83;4.90;;;3.50;99.90;;;;;;4163339;28;20508;-82
2024/01/05 06:24:38;;;;;;;8.67;4.20;;;3.60;99.90;;;;;;4165568;28;20831;-81
2024/01/05 06:26:40;;;;;;;8.20;4.00;;;3.60;99.90;;;;;;4162855;28;20447;-81
2024/01/05 06:28:43;;;;;;;9.73;4.10;;;3.60;99.90;;;;;;4158720;28;20487;-81
2024/01/05 06:30:45;;;;;;;12.07;5.20;;;3.60;99.90;;;;;;4164923;28;20524;-80
2024/01/05 06:32:47;;;;;;;8.40;4.60;;;3.60;99.90;;;;;;4160627;28;20440;-81
2024/01/05 06:34:49;;;;;;;8.40;4.30;;;3.80;99.90;;;;;;4160762;28;20521;-80
2024/01/05 06:36:51;;;;;;;11.07;5.07;;;3.60;99.90;;;;;;4164830;28;20532;-82
2024/01/05 06:38:53;;;;;;;12.57;4.60;;;3.90;99.90;;;;;;4158625;28;20505;-82
2024/01/05 06:40:55;;;;;;;10.97;4.40;;;3.80;99.90;;;;;;4161595;28;20518;-81
2024/01/05 06:42:58;;;;;;;10.90;4.67;;;3.70;99.90;;;;;;4160857;28;20482;-81
2024/01/05 06:45:01;;;;;;;8.90;3.70;;;3.70;99.90;;;;;;4156978;28;21402;-81
2024/01/05 06:47:03;;;;;;;17.83;6.37;;;3.70;99.90;;;;;;4156051;28;20471;-81
2024/01/05 06:49:04;;;;;;;10.13;4.40;;;3.80;99.90;;;;;;4154362;28;20469;-81
2024/01/05 06:51:06;;;;;;;12.17;5.17;;;3.80;99.90;;;;;;4164650;28;20497;-81
2024/01/05 06:53:08;;;;;;;14.23;5.57;;;3.80;99.90;;;;;;4166402;28;20208;-80
2024/01/05 06:55:09;;;;;;;13.10;4.23;;;4.10;99.90;;;;;;4161301;28;20468;-81
2024/01/05 06:57:11;;;;;;;11.77;4.87;;;3.80;99.90;;;;;;4163795;28;20516;-81
2024/01/05 06:59:12;;;;;;;9.67;4.83;;;3.90;99.90;;;;;;4161899;28;20453;-81
2024/01/05 07:01:17;;;;;;;12.83;4.57;;;3.90;99.90;;;;;;4162457;28;20442;-81
2024/01/05 07:03:19;;;;;;;9.27;4.37;;;3.90;99.90;;;;;;4160981;28;20216;-81
2024/01/05 07:05:20;;;;;;;11.37;4.70;;;3.90;99.90;;;;;;4160640;28;20983;-81
2024/01/05 07:07:22;;;;;;;7.73;4.03;;;3.90;99.90;;;;;;4156908;28;20441;-81
2024/01/05 07:09:24;;;;;;;11.80;4.50;;;3.90;99.90;;;;;;4162539;28;20262;-81
2024/01/05 07:11:25;;;;;;;11.77;4.73;;;3.90;99.90;;;;;;4160929;28;20565;-81
2024/01/05 07:13:27;;;;;;;12.20;4.00;;;4.00;99.90;;;;;;4155523;28;20438;-81
2024/01/05 07:15:29;;;;;;;11.37;4.30;;;4.00;99.90;;;;;;4158416;28;20480;-81
2024/01/05 07:17:32;;;;;;;11.60;4.43;;;4.00;99.90;;;;;;4160629;28;20464;-81
2024/01/05 07:19:34;;;;;;;8.80;4.27;;;4.10;99.90;;;;;;4158627;28;20462;-81
2024/01/05 07:21:41;;;;;;;17.80;4.50;;;4.10;99.90;;;;;;4162575;28;20479;-81
2024/01/05 07:23:43;;;;;;;10.73;4.17;;;4.10;99.90;;;;;;4159252;28;20453;-81
2024/01/05 07:25:44;;;;;;;7.67;3.60;;;4.10;99.90;;;;;;4165618;28;20453;-80
2024/01/05 07:27:46;;;;;;;7.13;3.90;;;4.10;99.90;;;;;;4165441;28;20463;-81
2024/01/05 07:29:48;;;;;;;9.73;3.93;;;4.10;99.90;;;;;;4163671;28;20283;-81
2024/01/05 07:31:50;;;;;;;7.43;3.50;;;4.10;99.90;;;;;;4160817;28;20449;-81
2024/01/05 07:33:53;;;;;;;11.00;3.87;;;4.10;99.90;;;;;;4160481;28;20487;-81
2024/01/05 07:35:55;;;;;;;11.60;3.97;;;4.40;99.90;;;;;;4159625;28;20449;-81
2024/01/05 07:37:56;;;;;;;6.80;3.10;;;4.20;99.90;;;;;;4161776;28;20527;-81
2024/01/05 07:39:58;;;;;;;10.03;4.43;;;4.10;99.90;;;;;;4158716;28;20438;-81
2024/01/05 07:42:02;;;;;;;7.63;3.57;;;4.20;99.90;;;;;;4158739;28;20825;-81
2024/01/05 07:44:05;;;;;;;8.37;3.47;;;4.20;99.90;;;;;;4159588;28;20590;-81
2024/01/05 07:46:07;;;;;;;9.60;4.60;;;4.20;99.90;;;;;;4159806;28;20445;-81
2024/01/05 07:48:09;;;;;;;5.60;3.10;;;4.20;99.90;;;;;;4158851;28;20512;-82
2024/01/05 07:50:12;;;;;;;5.93;2.93;;;4.30;99.90;;;;;;4159417;28;20480;-81
2024/01/05 07:52:14;;;;;;;7.73;3.23;;;4.30;99.90;;;;;;4155501;28;20470;-82
2024/01/05 07:54:16;;;;;;;6.77;3.40;;;4.30;99.90;;;;;;4160048;28;20538;-82
2024/01/05 07:56:18;;;;;;;7.60;3.43;;;4.40;99.90;;;;;;4160987;28;20459;-81
2024/01/05 07:58:20;;;;;;;8.80;3.47;;;4.40;99.90;;;;;;4157576;28;20506;-81
2024/01/05 08:00:22;;;;;;;5.97;3.30;;;4.40;99.90;;;;;;4157192;28;20964;-81
2024/01/05 08:02:24;;;;;;;5.43;2.97;;;4.50;99.90;;;;;;4165042;28;21081;-81
2024/01/05 08:04:26;;;;;;;8.50;3.47;;;4.50;99.90;;;;;;4160596;28;20476;-82
2024/01/05 08:06:29;;;;;;;10.47;3.60;;;4.60;99.90;;;;;;4156615;28;20460;-81
2024/01/05 08:08:30;;;;;;;13.30;4.50;;;4.60;99.90;;;;;;4161368;28;20524;-81
2024/01/05 08:10:32;;;;;;;11.20;3.60;;;4.70;99.90;;;;;;4154276;28;20489;-81
2024/01/05 08:12:34;;;;;;;9.40;3.73;;;4.70;99.90;;;;;;4156639;28;20452;-81
2024/01/05 08:14:37;;;;;;;7.40;4.17;;;4.80;99.90;;;;;;4161127;28;20473;-81
2024/01/05 08:16:39;;;;;;;10.70;4.77;;;4.80;99.90;;;;;;4159033;28;20453;-81
2024/01/05 08:18:42;;;;;;;13.83;4.53;;;4.80;99.90;;;;;;4158904;28;21016;-81
2024/01/05 08:20:44;;;;;;;9.33;4.10;;;4.90;99.90;;;;;;4158981;28;20889;-80
2024/01/05 08:22:48;;;;;;;10.70;4.00;;;4.90;99.90;;;;;;4158703;28;20514;-80
2024/01/05 08:24:50;;;;;;;11.03;3.30;;;5.00;99.90;;;;;;4158385;28;20473;-80
2024/01/05 08:26:52;;;;;;;12.47;3.67;;;5.00;99.90;;;;;;4161469;28;20457;-81
2024/01/05 08:28:53;;;;;;;8.83;3.83;;;5.10;99.90;;;;;;4163798;28;20980;-81
2024/01/05 08:30:56;;;;;;;10.90;3.80;;;5.10;99.90;;;;;;4156828;28;20484;-81
2024/01/05 08:32:58;;;;;;;15.87;4.10;;;5.10;99.90;;;;;;4155734;28;20453;-77
2024/01/05 08:35:00;;;;;;;12.60;3.87;;;5.10;99.90;;;;;;4159116;28;20525;-81
2024/01/05 08:37:02;;;;;;;8.07;3.30;;;5.20;99.90;;;;;;4158771;28;20454;-81
2024/01/05 08:39:05;;;;;;;9.30;3.57;;;5.20;99.90;;;;;;4157852;28;21148;-80
2024/01/05 08:41:07;;;;;;;8.60;3.07;;;5.30;99.90;;;;;;4158124;28;20457;-81
2024/01/05 08:43:10;;;;;;;8.73;3.50;;;5.30;99.90;;;;;;4155677;28;20447;-81
2024/01/05 08:45:12;;;;;;;7.13;3.23;;;5.30;99.90;;;;;;4155305;28;20491;-81
2024/01/05 08:47:14;;;;;;;14.03;3.77;;;5.40;99.90;;;;;;4162115;28;20457;-81
2024/01/05 08:49:16;;;;;;;6.87;2.80;;;5.50;99.90;;;;;;4161493;28;20940;-81
2024/01/05 08:51:18;;;;;;;11.67;3.77;;;5.60;99.90;;;;;;4153693;28;20653;-81
2024/01/05 08:53:21;;;;;;;12.63;3.27;;;5.60;99.90;;;;;;4187597;28;20214;-81
2024/01/05 08:55:24;;;;;;;11.00;3.70;;;5.60;99.90;;;;;;4155804;28;20349;-81
2024/01/05 08:57:26;;;;;;;7.17;3.00;;;5.70;99.90;;;;;;4158215;28;20508;-81
2024/01/05 08:59:30;;;;;;;8.03;3.30;;;5.70;99.90;;;;;;4163106;28;20687;-81
2024/01/05 09:01:32;;;;;;;11.47;3.67;;;5.80;99.90;;;;;;4160271;28;20199;-81
2024/01/05 09:03:34;;;;;;;10.43;4.00;;;5.90;99.90;;;;;;4163071;28;20204;-81
2024/01/05 09:05:36;;;;;;;7.63;3.37;;;5.90;99.90;;;;;;4161957;28;20211;-81
2024/01/05 09:07:38;;;;;;;10.40;3.30;;;5.90;99.90;;;;;;4162150;28;20216;-81
2024/01/05 09:09:39;;;;;;;7.80;3.17;;;6.00;99.90;;;;;;4161506;28;20513;-81
2024/01/05 09:11:43;;;;;;;7.37;3.07;;;6.00;99.90;;;;;;4168349;28;20589;-80
2024/01/05 09:13:45;;;;;;;6.87;2.87;;;6.00;99.90;;;;;;4161309;28;20671;-80
2024/01/05 09:15:47;;;;;;;8.10;2.67;;;6.10;99.90;;;;;;4162174;28;20694;-81
2024/01/05 09:17:49;;;;;;;8.53;2.90;;;6.10;99.90;;;;;;4157129;28;20215;-80
2024/01/05 09:19:51;;;;;;;8.97;2.83;;;6.30;99.90;;;;;;4164477;28;20693;-81
2024/01/05 09:21:56;;;;;;;5.33;2.50;;;6.20;99.90;;;;;;4162151;28;20208;-80
2024/01/05 09:23:58;;;;;;;12.07;3.17;;;6.30;99.90;;;;;;4161389;28;20706;-80
2024/01/05 09:25:59;;;;;;;9.23;2.40;;;6.30;99.90;;;;;;4156592;28;20215;-80
2024/01/05 09:28:05;;;;;;;8.50;2.50;;;6.40;99.90;;;;;;4158474;28;20200;-79
2024/01/05 09:30:07;;;;;;;8.93;2.17;;;6.40;99.90;;;;;;4158695;28;20216;-81
2024/01/05 09:32:16;;;;;;;7.73;1.73;;;6.40;99.90;;;;;;4163795;28;20275;-82
2024/01/05 09:34:21;;;;;;;7.23;1.93;;;6.40;99.90;;;;;;4168565;28;20228;-82
2024/01/05 09:36:22;;;;;;;5.93;1.77;;;6.40;99.90;;;;;;4158551;28;20242;-81
2024/01/05 09:38:24;;;;;;;8.33;1.87;;;6.40;99.90;;;;;;4165443;28;20286;-80
2024/01/05 09:40:27;;;;;;;7.00;2.40;;;6.50;99.90;;;;;;4157127;28;20230;-80
2024/01/05 09:42:31;;;;;;;5.27;1.47;;;6.50;99.90;;;;;;4162637;28;20803;-80
2024/01/05 09:44:36;;;;;;;6.73;2.20;;;6.50;99.90;;;;;;4158503;28;20310;-80
2024/01/05 09:46:38;;;;;;;3.27;1.60;;;6.60;99.90;;;;;;4160660;28;20207;-81
2024/01/05 09:48:41;;;;;;;7.33;1.77;;;6.60;99.90;;;;;;4159003;28;20230;-80
2024/01/05 09:50:48;;;;;;;7.53;2.10;;;6.70;99.90;;;;;;4161013;28;20251;-80
2024/01/05 09:52:50;;;;;;;8.47;2.23;;;6.80;99.90;;;;;;4158416;28;20216;-81
2024/01/05 09:54:51;;;;;;;6.20;1.73;;;6.80;99.90;;;;;;4156778;28;20228;-81
2024/01/05 09:56:54;;;;;;;8.90;1.80;;;6.80;99.90;;;;;;4161729;28;20226;-80
2024/01/05 09:58:59;;;;;;;5.83;1.57;;;6.80;99.90;;;;;;4155117;28;20210;-82
2024/01/05 10:01:11;;;;;;;5.13;1.57;;;6.90;99.90;;;;;;4163270;28;20249;-80
2024/01/05 10:03:19;;;;;;;7.33;2.20;;;6.90;99.90;;;;;;4158423;28;20715;-81
2024/01/05 10:05:21;;;;;;;6.77;2.03;;;6.90;99.90;;;;;;4162941;28;20215;-80
2024/01/05 10:07:23;;;;;;;7.93;1.80;;;6.90;99.90;;;;;;4160597;28;20671;-80
2024/01/05 10:09:25;;;;;;;8.57;2.10;;;6.90;99.90;;;;;;4162046;28;20210;-80
2024/01/05 10:11:31;;;;;;;7.73;1.83;;;6.90;99.90;;;;;;4159059;28;20225;-81
2024/01/05 10:13:33;;;;;;;5.87;1.63;;;6.90;99.90;;;;;;4162152;28;20675;-81
2024/01/05 10:15:35;;;;;;;4.73;1.50;;;6.90;99.90;;;;;;4159581;28;20225;-80
2024/01/05 10:17:39;;;;;;;6.40;1.40;;;6.90;99.90;;;;;;4162486;28;20298;-80
2024/01/05 10:19:41;;;;;;;7.40;1.80;;;7.00;99.90;;;;;;4159775;28;20196;-80
2024/01/05 10:21:43;;;;;;;7.73;1.40;;;6.90;99.90;;;;;;4159868;28;20196;-81
2024/01/05 10:23:45;;;;;;;5.27;1.40;;;6.60;99.90;;;;;;4164415;28;20586;-79
2024/01/05 10:25:47;;;;;;;6.23;1.60;;;7.00;99.90;;;;;;4156515;28;20208;-81
2024/01/05 10:27:54;;;;;;;11.57;1.47;;;7.10;99.90;;;;;;4160040;28;20206;-80
2024/01/05 10:29:57;;;;;;;6.13;1.53;;;7.10;99.90;;;;;;4163323;28;20225;-81
2024/01/05 10:32:11;;;;;;;4.03;1.43;;;7.20;99.90;;;;;;4160679;28;20776;-81
2024/01/05 10:34:14;;;;;;;6.83;1.60;;;7.50;99.90;;;;;;4162227;28;20232;-81
2024/01/05 10:36:18;;;;;;;6.40;1.37;;;7.20;99.90;;;;;;4159526;28;20208;-81
2024/01/05 10:38:24;;;;;;;5.00;1.40;;;7.30;99.90;;;;;;4164543;28;20211;-81
2024/01/05 10:40:25;;;;;;;3.60;1.47;;;7.30;99.90;;;;;;4161417;28;20212;-83